KHVE

Hanksville Airport

Hanksville, Utah, USA
METAR KHVE 181255Z AUTO 00000KT 10SM CLR M05/M06 A3021 RMK AO2
Observed Flight Rules
Dec-18 @ 12:55 UTC (13 minutes ago) Visual Flight Rules
Visibility Clouds
10 miles
  • Clear skies
Temperatures Readings
Current -5°C / 23°F
Dewpoint -6°C / 21°F
Humidity 93%
Altimeter 30.21" Hg
Pressure 1023 hPa
Elevation 1350
METAR KHVE 181255Z AUTO 00000KT 10SM CLR M05/M06 A3021 RMK AO2
Observed Flight Rules
Dec-18 @ 12:55 UTC
(13 minutes ago)
VFR
Clouds
  • Clear skies
Temperature Dewpoint
-5°C / 23°F -6°C / 21°F
Humidity Altimeter Pressure
93% 30.21" Hg 1023 hPa